createdAt,value
2023-04-30T00:00:49.636Z,12.43
2023-04-30T00:03:17.424Z,12.38
2023-04-30T00:05:45.182Z,12.35
2023-04-30T00:08:14.132Z,12.28
2023-04-30T00:10:41.770Z,12.29
2023-04-30T00:13:10.242Z,12.29
2023-04-30T00:15:37.893Z,12.27
2023-04-30T00:18:07.013Z,12.26
2023-04-30T00:20:35.583Z,12.22
2023-04-30T00:23:03.268Z,12.21
2023-04-30T00:25:32.307Z,12.26
2023-04-30T00:27:59.920Z,12.27
2023-04-30T00:30:27.644Z,12.25
2023-04-30T00:32:55.504Z,12.22
2023-04-30T00:35:23.195Z,12.21
2023-04-30T00:37:50.840Z,12.19
2023-04-30T00:40:18.734Z,12.20
2023-04-30T00:42:48.613Z,12.17
2023-04-30T00:45:17.918Z,12.14
2023-04-30T00:47:45.580Z,12.11
2023-04-30T00:50:15.776Z,12.07
2023-04-30T00:52:44.188Z,12.07
2023-04-30T00:55:13.198Z,12.13
2023-04-30T00:57:41.641Z,11.78
2023-04-30T01:00:11.895Z,12.02
2023-04-30T01:02:39.702Z,12.04
2023-04-30T01:05:08.915Z,12.12
2023-04-30T01:07:38.644Z,12.10
2023-04-30T01:10:07.396Z,12.01
2023-04-30T01:12:40.507Z,12.06
2023-04-30T01:15:16.264Z,12.04
2023-04-30T01:17:49.377Z,12.04
2023-04-30T01:20:17.303Z,12.03
2023-04-30T01:22:51.342Z,12.05
2023-04-30T01:25:43.121Z,12.03
2023-04-30T01:28:16.342Z,11.98
2023-04-30T01:30:45.708Z,11.89
2023-04-30T01:33:13.601Z,11.95
2023-04-30T01:36:06.739Z,11.93
2023-04-30T01:38:47.966Z,11.94
2023-04-30T01:41:30.827Z,11.98
2023-04-30T01:44:13.911Z,12.01
2023-04-30T01:46:43.430Z,11.98
2023-04-30T01:49:20.947Z,11.94
2023-04-30T01:51:55.966Z,11.93
2023-04-30T01:54:28.581Z,11.28
2023-04-30T01:57:04.920Z,11.91
2023-04-30T01:59:37.335Z,11.94
2023-04-30T02:02:05.129Z,11.93
2023-04-30T02:04:33.286Z,11.97
2023-04-30T02:07:01.239Z,11.84
2023-04-30T02:09:28.907Z,11.88
2023-04-30T02:11:57.754Z,11.81
2023-04-30T02:14:26.003Z,11.73
2023-04-30T02:16:56.297Z,11.87
2023-04-30T02:19:23.995Z,11.88
2023-04-30T02:21:51.731Z,11.86
2023-04-30T02:24:19.340Z,11.75
2023-04-30T02:26:46.996Z,11.71
2023-04-30T02:29:14.836Z,11.76
2023-04-30T02:31:42.525Z,11.74
2023-04-30T02:34:13.340Z,11.61
2023-04-30T02:36:41.188Z,11.66
2023-04-30T02:39:09.058Z,11.70
2023-04-30T02:41:37.410Z,11.70
2023-04-30T02:44:05.614Z,11.70
2023-04-30T02:46:33.297Z,11.72
2023-04-30T02:49:01.007Z,11.65
2023-04-30T02:51:30.045Z,11.75
2023-04-30T02:53:57.928Z,11.64
2023-04-30T02:56:25.546Z,11.64
2023-04-30T02:58:53.644Z,11.65
2023-04-30T03:01:21.428Z,11.67
2023-04-30T03:03:49.565Z,11.67
2023-04-30T03:06:17.290Z,11.69
2023-04-30T03:08:46.294Z,11.68
2023-04-30T03:11:14.023Z,11.67
2023-04-30T03:13:42.116Z,11.67
2023-04-30T03:16:11.156Z,11.70
2023-04-30T03:18:38.845Z,11.69
2023-04-30T03:21:06.615Z,11.66
2023-04-30T03:23:34.294Z,11.60
2023-04-30T03:26:03.597Z,11.52
2023-04-30T03:28:31.277Z,11.58
2023-04-30T03:30:59.179Z,11.54
2023-04-30T03:33:27.295Z,11.58
2023-04-30T03:35:54.939Z,11.60
2023-04-30T03:38:22.835Z,11.43
2023-04-30T03:40:50.465Z,11.46
2023-04-30T03:43:19.520Z,11.55
2023-04-30T03:45:47.456Z,11.45
2023-04-30T03:48:15.235Z,11.52
2023-04-30T03:50:42.909Z,11.58
2023-04-30T03:53:10.541Z,11.55
2023-04-30T03:55:38.565Z,11.56
2023-04-30T03:58:06.260Z,11.55
2023-04-30T04:00:35.565Z,11.52
2023-04-30T04:03:04.252Z,11.47
2023-04-30T04:05:32.007Z,11.54
2023-04-30T04:07:59.699Z,11.41
2023-04-30T04:10:27.349Z,11.42
2023-04-30T04:12:55.014Z,11.48
2023-04-30T04:15:22.859Z,11.50
2023-04-30T04:17:52.229Z,11.57
2023-04-30T04:20:20.041Z,11.58
2023-04-30T04:22:47.781Z,11.68
2023-04-30T04:25:18.072Z,11.63
2023-04-30T04:27:46.272Z,11.59
2023-04-30T04:30:14.705Z,11.57
2023-04-30T04:32:49.468Z,11.68
2023-04-30T04:35:19.608Z,11.66
2023-04-30T04:37:47.654Z,11.64
2023-04-30T04:40:15.475Z,11.68
2023-04-30T04:42:43.144Z,11.68
2023-04-30T04:45:12.997Z,11.65
2023-04-30T04:47:41.331Z,11.86
2023-04-30T04:50:09.778Z,11.84
2023-04-30T04:52:39.000Z,11.80
2023-04-30T04:55:07.218Z,11.93
2023-04-30T04:57:34.889Z,11.84
2023-04-30T05:00:02.786Z,11.88
2023-04-30T05:02:30.565Z,11.95
2023-04-30T05:04:58.397Z,12.11
2023-04-30T05:07:26.242Z,12.15
2023-04-30T05:09:55.524Z,12.23
2023-04-30T05:12:23.624Z,12.12
2023-04-30T05:14:51.281Z,12.04
2023-04-30T05:17:19.110Z,12.02
2023-04-30T05:19:47.707Z,11.95
2023-04-30T05:22:15.373Z,11.96
2023-04-30T05:24:43.283Z,11.90
2023-04-30T05:27:12.266Z,11.80
2023-04-30T05:29:39.937Z,11.72
2023-04-30T05:32:08.026Z,11.73
2023-04-30T05:34:35.978Z,11.48
2023-04-30T05:37:03.963Z,11.63
2023-04-30T05:39:31.552Z,11.55
2023-04-30T05:41:59.171Z,11.70
2023-04-30T05:44:30.302Z,11.81
2023-04-30T05:46:57.942Z,11.93
2023-04-30T05:49:25.746Z,11.82
2023-04-30T05:51:53.362Z,12.01
2023-04-30T05:54:20.960Z,12.17
2023-04-30T05:56:48.572Z,12.16
2023-04-30T05:59:16.197Z,12.26
2023-04-30T06:01:45.313Z,12.38
2023-04-30T06:04:13.497Z,12.70
2023-04-30T06:06:41.188Z,12.79
2023-04-30T06:09:09.007Z,13.01
2023-04-30T06:11:37.213Z,13.19
2023-04-30T06:14:05.369Z,13.26
2023-04-30T06:16:33.346Z,13.34
2023-04-30T06:19:02.496Z,13.16
2023-04-30T06:21:30.664Z,13.01
2023-04-30T06:23:58.440Z,12.90
2023-04-30T06:26:26.392Z,12.93
2023-04-30T06:28:54.103Z,13.15
2023-04-30T06:31:21.747Z,13.37
2023-04-30T06:33:50.157Z,13.31
2023-04-30T06:36:19.588Z,13.30
2023-04-30T06:38:48.022Z,13.80
2023-04-30T06:41:16.280Z,14.01
2023-04-30T06:43:44.373Z,14.24
2023-04-30T06:46:12.014Z,14.36
2023-04-30T06:48:39.726Z,14.01
2023-04-30T06:51:09.883Z,14.18
2023-04-30T06:53:39.604Z,14.18
2023-04-30T06:56:07.550Z,14.06
2023-04-30T06:58:35.265Z,14.34
2023-04-30T07:01:03.361Z,14.55
2023-04-30T07:03:31.212Z,14.84
2023-04-30T07:05:58.974Z,15.18
2023-04-30T07:08:26.741Z,15.01
2023-04-30T07:10:56.237Z,15.26
2023-04-30T07:13:23.935Z,15.15
2023-04-30T07:15:51.718Z,15.49
2023-04-30T07:18:19.452Z,15.54
2023-04-30T07:20:47.402Z,15.67
2023-04-30T07:23:15.025Z,15.84
2023-04-30T07:25:42.693Z,16.12
2023-04-30T07:28:11.936Z,16.35
2023-04-30T07:30:39.920Z,16.54
2023-04-30T07:33:08.300Z,16.91
2023-04-30T07:35:36.461Z,17.10
2023-04-30T07:38:04.814Z,17.59
2023-04-30T07:40:36.266Z,17.67
2023-04-30T07:43:05.085Z,17.73
2023-04-30T07:45:35.113Z,18.00
2023-04-30T07:48:03.116Z,17.79
2023-04-30T07:50:33.859Z,17.46
2023-04-30T07:53:02.569Z,17.44
2023-04-30T07:55:30.417Z,17.82
2023-04-30T07:57:58.723Z,17.01
2023-04-30T08:00:26.670Z,17.04
2023-04-30T08:02:56.021Z,17.02
2023-04-30T08:05:23.771Z,17.08
2023-04-30T08:07:51.452Z,17.30
2023-04-30T08:10:19.172Z,17.26
2023-04-30T08:12:46.998Z,17.52
2023-04-30T08:15:14.669Z,17.51
2023-04-30T08:17:42.393Z,17.09
2023-04-30T08:20:12.366Z,17.02
2023-04-30T08:22:40.257Z,16.69
2023-04-30T08:25:08.453Z,16.99
2023-04-30T08:27:36.085Z,17.55
2023-04-30T08:30:04.238Z,17.71
2023-04-30T08:32:31.944Z,17.10
2023-04-30T08:34:59.603Z,17.40
2023-04-30T08:37:28.872Z,17.92
2023-04-30T08:39:56.866Z,18.05
2023-04-30T08:42:27.122Z,18.08
2023-04-30T08:44:54.792Z,18.36
2023-04-30T08:47:23.314Z,17.77
2023-04-30T08:49:51.990Z,17.47
2023-04-30T08:52:20.438Z,17.24
2023-04-30T08:54:51.541Z,17.23
2023-04-30T08:57:19.825Z,17.32
2023-04-30T08:59:47.803Z,17.55
2023-04-30T09:02:15.522Z,17.46
2023-04-30T09:04:43.195Z,17.62
2023-04-30T09:07:13.290Z,17.99
2023-04-30T09:09:42.054Z,18.31
2023-04-30T09:12:18.684Z,19.02
2023-04-30T09:15:01.408Z,19.39
2023-04-30T09:17:31.222Z,18.98
2023-04-30T09:20:08.226Z,18.69
2023-04-30T09:22:37.605Z,18.20
2023-04-30T09:25:06.529Z,18.31
2023-04-30T09:27:35.838Z,17.86
2023-04-30T09:30:05.541Z,17.83
2023-04-30T09:32:33.275Z,18.13
2023-04-30T09:35:00.985Z,17.95
2023-04-30T09:37:37.241Z,17.97
2023-04-30T09:40:05.936Z,17.89
2023-04-30T09:42:35.152Z,18.11
2023-04-30T09:45:05.605Z,17.77
2023-04-30T09:47:34.165Z,17.79
2023-04-30T09:50:01.892Z,17.78
2023-04-30T09:52:29.628Z,17.95
2023-04-30T09:54:57.270Z,17.71
2023-04-30T09:57:25.590Z,17.57
2023-04-30T09:59:55.788Z,17.44
2023-04-30T10:02:24.224Z,17.47
2023-04-30T10:04:58.942Z,18.16
2023-04-30T10:07:32.291Z,18.45
2023-04-30T10:10:04.927Z,18.75
2023-04-30T10:12:40.602Z,18.62
2023-04-30T10:15:15.107Z,18.71
2023-04-30T10:17:48.352Z,18.66
2023-04-30T10:20:18.340Z,19.02
2023-04-30T10:22:48.035Z,18.91
2023-04-30T10:25:16.329Z,18.89
2023-04-30T10:27:44.128Z,18.90
2023-04-30T10:30:14.857Z,19.58
2023-04-30T10:32:49.827Z,20.16
2023-04-30T10:35:23.417Z,20.17
2023-04-30T10:37:55.983Z,20.23
2023-04-30T10:40:23.693Z,20.83
2023-04-30T10:42:51.717Z,20.92
2023-04-30T10:45:35.723Z,20.20
2023-04-30T10:48:03.991Z,20.41
2023-04-30T10:50:32.172Z,20.31
2023-04-30T10:53:04.446Z,20.53
2023-04-30T10:55:33.057Z,20.98
2023-04-30T10:58:00.847Z,21.02
2023-04-30T11:00:31.808Z,20.43
2023-04-30T11:03:04.810Z,20.88
2023-04-30T11:05:37.745Z,20.65
2023-04-30T11:08:06.263Z,20.02
2023-04-30T11:10:35.684Z,20.16
2023-04-30T11:13:06.442Z,20.26
2023-04-30T11:15:41.737Z,20.69
2023-04-30T11:18:10.008Z,20.25
2023-04-30T11:20:41.326Z,20.46
2023-04-30T11:23:10.053Z,20.66
2023-04-30T11:25:42.315Z,20.52
2023-04-30T11:28:14.178Z,20.70
2023-04-30T11:30:51.035Z,20.48
2023-04-30T11:33:19.263Z,20.59
2023-04-30T11:35:46.999Z,20.84
2023-04-30T11:38:16.463Z,20.95
2023-04-30T11:40:44.888Z,21.12
2023-04-30T11:43:22.619Z,20.83
2023-04-30T11:46:02.701Z,20.48
2023-04-30T11:48:34.713Z,20.71
2023-04-30T11:51:15.634Z,20.39
2023-04-30T11:53:43.642Z,20.75
2023-04-30T11:56:11.587Z,20.21
2023-04-30T11:58:40.180Z,20.65
2023-04-30T12:01:10.783Z,20.76
2023-04-30T12:03:42.979Z,20.97
2023-04-30T12:06:11.936Z,21.02
2023-04-30T12:08:42.527Z,20.58
2023-04-30T12:11:21.601Z,20.47
2023-04-30T12:13:53.608Z,20.83
2023-04-30T12:16:22.825Z,21.45
2023-04-30T12:18:52.829Z,21.81
2023-04-30T12:21:22.753Z,22.14
2023-04-30T12:23:50.625Z,22.56
2023-04-30T12:26:18.771Z,22.17
2023-04-30T12:28:48.716Z,21.58
2023-04-30T12:31:18.618Z,21.59
2023-04-30T12:33:56.952Z,21.14
2023-04-30T12:36:31.601Z,20.46
2023-04-30T12:39:12.992Z,20.60
2023-04-30T12:41:42.630Z,21.03
2023-04-30T12:44:21.631Z,21.35
2023-04-30T12:46:50.462Z,21.50
2023-04-30T12:49:27.246Z,22.13
2023-04-30T12:52:01.052Z,21.79
2023-04-30T12:54:30.240Z,21.95
2023-04-30T12:57:00.180Z,22.07
2023-04-30T12:59:28.057Z,21.59
2023-04-30T13:01:56.590Z,21.89
2023-04-30T13:04:26.201Z,21.62
2023-04-30T13:06:54.003Z,21.17
2023-04-30T13:09:22.325Z,20.62
2023-04-30T13:11:50.752Z,20.35
2023-04-30T13:14:18.666Z,20.23
2023-04-30T13:16:46.355Z,20.24
2023-04-30T13:19:14.023Z,20.45
2023-04-30T13:21:43.249Z,20.61
2023-04-30T13:24:11.065Z,20.72
2023-04-30T13:26:38.882Z,20.38
2023-04-30T13:29:06.508Z,20.03
2023-04-30T13:31:34.563Z,20.41
2023-04-30T13:34:02.363Z,20.74
2023-04-30T13:36:30.213Z,20.90
2023-04-30T13:38:59.262Z,21.37
2023-04-30T13:41:27.220Z,21.07
2023-04-30T13:43:55.006Z,21.59
2023-04-30T13:46:22.710Z,21.63
2023-04-30T13:48:53.047Z,21.93
2023-04-30T13:51:20.912Z,21.91
2023-04-30T13:53:48.880Z,22.38
2023-04-30T13:56:17.919Z,22.67
2023-04-30T13:58:46.414Z,22.27
2023-04-30T14:01:14.399Z,22.24
2023-04-30T14:03:42.145Z,22.27
2023-04-30T14:06:09.904Z,22.03
2023-04-30T14:08:37.635Z,22.00
2023-04-30T14:11:05.354Z,21.09
2023-04-30T14:13:34.520Z,20.64
2023-04-30T14:16:02.560Z,20.07
2023-04-30T14:18:30.234Z,19.97
2023-04-30T14:20:57.844Z,20.02
2023-04-30T14:23:25.981Z,20.66
2023-04-30T14:25:54.413Z,21.42
2023-04-30T14:28:22.061Z,21.21
2023-04-30T14:30:51.144Z,21.56
2023-04-30T14:33:18.838Z,21.87
2023-04-30T14:35:47.407Z,21.86
2023-04-30T14:38:15.391Z,22.21
2023-04-30T14:40:44.191Z,22.03
2023-04-30T14:43:11.917Z,21.84
2023-04-30T14:45:39.905Z,21.81
2023-04-30T14:48:09.601Z,21.47
2023-04-30T14:50:37.364Z,21.10
2023-04-30T14:53:05.144Z,21.19
2023-04-30T14:55:33.166Z,21.20
2023-04-30T14:58:00.940Z,20.68
2023-04-30T15:00:29.039Z,20.52
2023-04-30T15:02:56.805Z,20.68
2023-04-30T15:05:25.944Z,20.53
2023-04-30T15:07:54.152Z,20.89
2023-04-30T15:10:22.046Z,21.05
2023-04-30T15:12:49.708Z,20.94
2023-04-30T15:15:18.923Z,21.45
2023-04-30T15:17:46.876Z,21.45
2023-04-30T15:20:14.724Z,21.45
2023-04-30T15:22:44.778Z,21.36
2023-04-30T15:25:12.371Z,21.66
2023-04-30T15:27:41.211Z,21.88
2023-04-30T15:30:10.296Z,21.74
2023-04-30T15:32:38.232Z,21.57
2023-04-30T15:35:06.945Z,20.98
2023-04-30T15:37:35.008Z,20.72
2023-04-30T15:40:04.800Z,20.46
2023-04-30T15:42:32.496Z,20.16
2023-04-30T15:45:00.138Z,20.45
2023-04-30T15:47:28.024Z,20.28
2023-04-30T15:49:56.853Z,20.41
2023-04-30T15:52:24.799Z,20.45
2023-04-30T15:54:52.452Z,20.41
2023-04-30T15:57:21.649Z,21.00
2023-04-30T15:59:49.329Z,21.05
2023-04-30T16:02:17.139Z,21.27
2023-04-30T16:04:44.852Z,21.09
2023-04-30T16:07:13.385Z,21.02
2023-04-30T16:09:41.789Z,20.92
2023-04-30T16:12:09.553Z,20.67
2023-04-30T16:14:38.573Z,20.68
2023-04-30T16:17:06.252Z,20.52
2023-04-30T16:19:33.935Z,20.25
2023-04-30T16:22:01.696Z,20.12
2023-04-30T16:24:29.550Z,20.02
2023-04-30T16:26:57.364Z,20.25
2023-04-30T16:29:25.027Z,20.49
2023-04-30T16:31:54.584Z,20.40
2023-04-30T16:34:22.375Z,20.21
2023-04-30T16:36:50.091Z,20.43
2023-04-30T16:39:18.184Z,20.65
2023-04-30T16:41:45.820Z,20.64
2023-04-30T16:44:13.622Z,20.75
2023-04-30T16:46:41.424Z,20.90
2023-04-30T16:49:10.403Z,21.29
2023-04-30T16:51:38.008Z,21.96
2023-04-30T16:54:06.099Z,23.47
2023-04-30T16:56:33.752Z,24.03
2023-04-30T16:59:01.455Z,24.36
2023-04-30T17:01:29.261Z,24.31
2023-04-30T17:03:56.928Z,22.67
2023-04-30T17:06:26.288Z,21.77
2023-04-30T17:08:55.139Z,21.02
2023-04-30T17:11:24.176Z,20.40
2023-04-30T17:13:53.508Z,19.93
2023-04-30T17:16:21.296Z,19.61
2023-04-30T17:18:49.445Z,19.65
2023-04-30T17:21:17.299Z,19.57
2023-04-30T17:23:46.324Z,19.30
2023-04-30T17:26:14.004Z,19.14
2023-04-30T17:28:41.675Z,19.24
2023-04-30T17:31:09.416Z,19.19
2023-04-30T17:33:37.725Z,19.06
2023-04-30T17:36:05.802Z,19.03
2023-04-30T17:38:33.484Z,18.87
2023-04-30T17:41:02.670Z,18.73
2023-04-30T17:43:30.434Z,18.54
2023-04-30T17:45:58.124Z,18.35
2023-04-30T17:48:25.955Z,18.17
2023-04-30T17:50:53.720Z,17.79
2023-04-30T17:53:21.419Z,17.82
2023-04-30T17:55:49.089Z,17.89
2023-04-30T17:58:18.112Z,17.68
2023-04-30T18:00:46.182Z,17.61
2023-04-30T18:03:13.950Z,17.37
2023-04-30T18:05:42.235Z,17.17
2023-04-30T18:08:10.181Z,17.02
2023-04-30T18:10:38.023Z,16.73
2023-04-30T18:13:06.130Z,16.56
2023-04-30T18:15:35.167Z,16.33
2023-04-30T18:18:03.357Z,16.18
2023-04-30T18:20:31.296Z,15.90
2023-04-30T18:22:59.051Z,15.78
2023-04-30T18:25:27.566Z,15.58
2023-04-30T18:27:55.217Z,15.42
2023-04-30T18:30:22.884Z,14.81
2023-04-30T18:32:51.860Z,15.09
2023-04-30T18:35:19.590Z,14.90
2023-04-30T18:37:47.493Z,14.72
2023-04-30T18:40:15.184Z,14.56
2023-04-30T18:42:43.000Z,14.39
2023-04-30T18:45:11.726Z,14.22
2023-04-30T18:47:39.468Z,14.05
2023-04-30T18:50:13.268Z,13.89
2023-04-30T18:52:41.298Z,13.83
2023-04-30T18:55:11.564Z,13.76
2023-04-30T18:57:41.947Z,13.66
2023-04-30T19:00:12.182Z,13.51
2023-04-30T19:02:40.408Z,13.42
2023-04-30T19:05:09.903Z,13.26
2023-04-30T19:07:37.682Z,13.18
2023-04-30T19:10:06.704Z,13.10
2023-04-30T19:12:34.452Z,13.16
2023-04-30T19:15:02.432Z,13.13
2023-04-30T19:17:30.149Z,13.06
2023-04-30T19:19:58.830Z,12.96
2023-04-30T19:22:27.864Z,12.77
2023-04-30T19:24:56.281Z,12.80
2023-04-30T19:27:23.992Z,12.73
2023-04-30T19:29:53.586Z,12.60
2023-04-30T19:32:21.998Z,12.57
2023-04-30T19:34:50.601Z,12.54
2023-04-30T19:37:18.164Z,12.47
2023-04-30T19:39:48.260Z,12.44
2023-04-30T19:42:16.272Z,12.34
2023-04-30T19:44:44.108Z,12.24
2023-04-30T19:47:11.763Z,12.19
2023-04-30T19:49:39.459Z,12.20
2023-04-30T19:52:08.400Z,12.16
2023-04-30T19:54:36.313Z,12.12
2023-04-30T19:57:05.577Z,12.10
2023-04-30T19:59:33.269Z,12.03
2023-04-30T20:02:01.003Z,12.01
2023-04-30T20:04:28.808Z,11.94
2023-04-30T20:06:58.544Z,11.89
2023-04-30T20:09:26.245Z,11.87
2023-04-30T20:11:55.957Z,11.76
2023-04-30T20:14:24.934Z,11.81
2023-04-30T20:16:54.823Z,11.79
2023-04-30T20:19:23.228Z,11.76
2023-04-30T20:21:51.301Z,11.76
2023-04-30T20:24:18.996Z,11.74
2023-04-30T20:26:46.969Z,11.69
2023-04-30T20:29:14.576Z,11.62
2023-04-30T20:31:44.040Z,11.61
2023-04-30T20:34:11.781Z,11.62
2023-04-30T20:36:40.091Z,11.54
2023-04-30T20:39:08.493Z,11.56
2023-04-30T20:41:37.205Z,11.54
2023-04-30T20:44:05.702Z,11.52
2023-04-30T20:46:35.070Z,11.47
2023-04-30T20:49:05.024Z,11.44
2023-04-30T20:51:33.242Z,11.45
2023-04-30T20:54:00.904Z,11.41
2023-04-30T20:56:28.780Z,11.49
2023-04-30T20:58:56.400Z,11.44
2023-04-30T21:01:24.478Z,11.55
2023-04-30T21:03:52.300Z,11.58
2023-04-30T21:06:22.080Z,11.58
2023-04-30T21:08:49.733Z,11.63
2023-04-30T21:11:19.666Z,11.60
2023-04-30T21:13:48.835Z,11.61
2023-04-30T21:16:18.169Z,11.61
2023-04-30T21:18:46.197Z,11.63
2023-04-30T21:21:14.279Z,11.62
2023-04-30T21:23:43.824Z,11.70
2023-04-30T21:26:13.138Z,11.73
2023-04-30T21:28:40.871Z,11.80
2023-04-30T21:31:10.678Z,11.84
2023-04-30T21:33:38.953Z,11.90
2023-04-30T21:36:07.395Z,11.89
2023-04-30T21:38:35.257Z,11.80
2023-04-30T21:41:04.383Z,11.89
2023-04-30T21:43:33.132Z,11.93
2023-04-30T21:46:03.035Z,12.01
2023-04-30T21:48:31.610Z,12.09
2023-04-30T21:50:59.504Z,12.14
2023-04-30T21:53:27.879Z,12.15
2023-04-30T21:55:55.694Z,12.21
2023-04-30T21:58:25.264Z,12.33
2023-04-30T22:00:54.727Z,12.37
2023-04-30T22:03:23.034Z,12.41
2023-04-30T22:05:50.823Z,12.45
2023-04-30T22:08:19.053Z,12.55
2023-04-30T22:10:46.710Z,12.61
2023-04-30T22:13:15.252Z,12.67
2023-04-30T22:15:48.272Z,12.81
2023-04-30T22:18:17.247Z,12.92
2023-04-30T22:20:44.983Z,13.02
2023-04-30T22:23:13.466Z,12.96
2023-04-30T22:25:41.113Z,12.94
2023-04-30T22:28:11.312Z,12.94
2023-04-30T22:30:39.971Z,12.99
2023-04-30T22:33:09.828Z,12.91
2023-04-30T22:35:38.088Z,12.79
2023-04-30T22:38:06.762Z,12.64
2023-04-30T22:40:35.636Z,12.54
2023-04-30T22:43:05.407Z,12.50
2023-04-30T22:45:36.809Z,12.50
2023-04-30T22:48:05.401Z,12.48
2023-04-30T22:50:34.516Z,12.38
2023-04-30T22:53:02.750Z,12.27
2023-04-30T22:55:31.350Z,12.18
2023-04-30T22:58:00.028Z,12.19
2023-04-30T23:00:28.044Z,12.35
2023-04-30T23:02:56.245Z,12.19
2023-04-30T23:05:24.094Z,12.23
2023-04-30T23:07:54.301Z,12.15
2023-04-30T23:10:21.971Z,12.22
2023-04-30T23:12:50.395Z,12.22
2023-04-30T23:15:18.260Z,12.29
2023-04-30T23:17:46.561Z,12.27
2023-04-30T23:20:14.271Z,12.33
2023-04-30T23:22:42.375Z,12.36
2023-04-30T23:25:11.492Z,12.32
2023-04-30T23:27:39.084Z,12.40
2023-04-30T23:30:09.667Z,12.46
2023-04-30T23:32:37.572Z,12.46
2023-04-30T23:35:07.084Z,12.44
2023-04-30T23:37:34.772Z,12.50
2023-04-30T23:40:07.484Z,12.47
2023-04-30T23:42:36.605Z,12.48
2023-04-30T23:45:05.970Z,12.49
2023-04-30T23:47:36.041Z,12.63
2023-04-30T23:50:04.678Z,12.67
2023-04-30T23:52:33.079Z,12.64
2023-04-30T23:55:01.571Z,12.73
2023-04-30T23:57:29.515Z,12.74
2023-04-30T23:59:59.277Z,12.69
